createdAt,value
2018-07-29T00:00:47.670Z,72.64
2018-07-29T00:01:47.856Z,72.36
2018-07-29T00:02:48.053Z,72.06
2018-07-29T00:03:48.228Z,73.09
2018-07-29T00:04:48.428Z,73.67
2018-07-29T00:05:48.602Z,74.54
2018-07-29T00:06:48.786Z,75.27
2018-07-29T00:07:48.980Z,75.18
2018-07-29T00:08:49.167Z,75.76
2018-07-29T00:09:49.337Z,75.37
2018-07-29T00:10:49.524Z,75.37
2018-07-29T00:11:49.715Z,74.51
2018-07-29T00:12:49.892Z,74.99
2018-07-29T00:13:50.074Z,75.12
2018-07-29T00:14:50.261Z,75.27
2018-07-29T00:15:50.447Z,75.47
2018-07-29T00:16:50.633Z,76.05
2018-07-29T00:17:50.824Z,75.85
2018-07-29T00:18:51.002Z,75.72
2018-07-29T00:19:51.196Z,78.19
2018-07-29T00:20:51.386Z,79.79
2018-07-29T00:21:51.561Z,80.27
2018-07-29T00:22:51.740Z,80.18
2018-07-29T00:23:51.926Z,80.56
2018-07-29T00:24:52.110Z,79.98
2018-07-29T00:25:52.297Z,79.16
2018-07-29T00:26:52.488Z,78.58
2018-07-29T00:27:52.667Z,78.81
2018-07-29T00:28:52.858Z,78.61
2018-07-29T00:29:53.041Z,77.94
2018-07-29T00:30:53.232Z,77.55
2018-07-29T00:31:53.402Z,77.65
2018-07-29T00:32:53.588Z,77.26
2018-07-29T00:33:53.771Z,76.88
2018-07-29T00:34:53.956Z,76.43
2018-07-29T00:35:54.134Z,76.05
2018-07-29T00:36:54.321Z,75.76
2018-07-29T00:37:54.501Z,75.95
2018-07-29T00:38:54.692Z,76.24
2018-07-29T00:39:54.873Z,76.72
2018-07-29T00:40:55.059Z,76.78
2018-07-29T00:41:55.241Z,76.88
2018-07-29T00:42:55.427Z,78.13
2018-07-29T00:43:55.608Z,78.09
2018-07-29T00:44:55.787Z,79.16
2018-07-29T00:45:55.977Z,78.96
2018-07-29T00:46:56.182Z,78.86
2018-07-29T00:47:56.341Z,78.77
2018-07-29T00:48:56.522Z,78.77
2018-07-29T00:49:56.708Z,78.86
2018-07-29T00:50:56.904Z,79.06
2018-07-29T00:51:57.086Z,78.77
2018-07-29T00:52:57.279Z,78.67
2018-07-29T00:53:57.456Z,78.67
2018-07-29T00:54:57.636Z,79.25
2018-07-29T00:55:57.822Z,79.74
2018-07-29T00:56:58.001Z,80.18
2018-07-29T00:57:58.193Z,81.68
2018-07-29T00:58:58.376Z,82.26
2018-07-29T00:59:58.549Z,82.59
2018-07-29T01:00:58.749Z,82.45
2018-07-29T01:01:58.934Z,82.16
2018-07-29T01:02:59.128Z,82.01
2018-07-29T01:03:59.297Z,82.93
2018-07-29T01:04:59.509Z,83.22
2018-07-29T01:05:59.680Z,83.51
2018-07-29T01:06:59.869Z,83.41
2018-07-29T01:08:00.053Z,82.64
2018-07-29T01:09:00.247Z,82.74
2018-07-29T01:10:00.419Z,82.10
2018-07-29T01:11:00.597Z,81.58
2018-07-29T01:12:00.784Z,81.91
2018-07-29T01:13:00.964Z,81.81
2018-07-29T01:14:01.141Z,82.20
2018-07-29T01:15:01.563Z,81.81
2018-07-29T01:16:01.514Z,81.52
2018-07-29T01:17:01.704Z,82.10
2018-07-29T01:18:01.890Z,81.33
2018-07-29T01:19:02.071Z,81.43
2018-07-29T01:20:02.271Z,81.04
2018-07-29T01:21:02.445Z,81.24
2018-07-29T01:22:02.636Z,80.56
2018-07-29T01:23:02.815Z,79.50
2018-07-29T01:24:03.015Z,79.98
2018-07-29T01:25:03.187Z,79.98
2018-07-29T01:26:03.372Z,80.08
2018-07-29T01:27:03.567Z,80.27
2018-07-29T01:28:03.745Z,80.14
2018-07-29T01:29:03.945Z,80.43
2018-07-29T01:30:04.117Z,81.29
2018-07-29T01:31:04.298Z,80.62
2018-07-29T01:32:04.499Z,80.71
2018-07-29T01:33:04.701Z,80.66
2018-07-29T01:34:04.858Z,80.18
2018-07-29T01:35:05.049Z,80.56
2018-07-29T01:36:05.239Z,80.76
2018-07-29T01:37:05.416Z,80.08
2018-07-29T01:38:05.603Z,80.04
2018-07-29T01:39:05.788Z,80.37
2018-07-29T01:40:05.974Z,80.37
2018-07-29T01:41:06.158Z,80.08
2018-07-29T01:42:06.340Z,79.79
2018-07-29T01:43:06.522Z,80.27
2018-07-29T01:44:06.705Z,80.04
2018-07-29T01:45:06.896Z,80.27
2018-07-29T01:47:07.265Z,80.46
2018-07-29T01:48:07.441Z,80.62
2018-07-29T01:49:07.623Z,81.20
2018-07-29T01:50:07.814Z,80.81
2018-07-29T01:51:07.988Z,80.81
2018-07-29T01:52:08.173Z,80.14
2018-07-29T01:53:08.355Z,80.43
2018-07-29T01:54:08.537Z,80.04
2018-07-29T01:55:08.730Z,81.20
2018-07-29T01:56:08.921Z,81.29
2018-07-29T01:57:09.094Z,80.91
2018-07-29T01:58:09.284Z,81.01
2018-07-29T01:59:09.466Z,81.20
2018-07-29T02:00:09.663Z,81.29
2018-07-29T02:01:09.839Z,80.91
2018-07-29T02:02:10.027Z,81.01
2018-07-29T02:03:10.204Z,80.91
2018-07-29T02:04:10.439Z,80.52
2018-07-29T02:05:10.575Z,81.39
2018-07-29T02:06:10.770Z,81.39
2018-07-29T02:07:10.950Z,81.29
2018-07-29T02:08:11.133Z,81.29
2018-07-29T02:09:11.322Z,80.91
2018-07-29T02:10:11.502Z,80.23
2018-07-29T02:11:11.685Z,80.04
2018-07-29T02:12:11.873Z,80.52
2018-07-29T02:13:12.064Z,80.52
2018-07-29T02:14:12.237Z,80.43
2018-07-29T02:15:12.424Z,80.33
2018-07-29T02:16:12.613Z,80.43
2018-07-29T02:17:12.819Z,80.04
2018-07-29T02:18:12.983Z,79.66
2018-07-29T02:19:13.167Z,79.75
2018-07-29T02:20:13.351Z,79.46
2018-07-29T02:21:13.548Z,79.31
2018-07-29T02:22:13.726Z,79.11
2018-07-29T02:23:13.911Z,80.04
2018-07-29T02:24:14.092Z,79.75
2018-07-29T02:25:14.271Z,80.23
2018-07-29T02:26:14.464Z,80.23
2018-07-29T02:27:14.648Z,80.43
2018-07-29T02:28:14.830Z,80.43
2018-07-29T02:29:15.019Z,80.52
2018-07-29T02:30:15.201Z,80.71
2018-07-29T02:31:15.389Z,80.91
2018-07-29T02:32:15.574Z,81.39
2018-07-29T02:33:15.744Z,81.20
2018-07-29T02:34:15.925Z,81.77
2018-07-29T02:35:16.109Z,81.68
2018-07-29T02:36:16.297Z,81.48
2018-07-29T02:37:16.490Z,81.20
2018-07-29T02:38:16.675Z,80.52
2018-07-29T02:39:16.856Z,80.91
2018-07-29T02:40:17.081Z,81.20
2018-07-29T02:41:17.250Z,81.20
2018-07-29T02:42:17.424Z,81.20
2018-07-29T02:43:17.609Z,81.35
2018-07-29T02:44:17.801Z,81.93
2018-07-29T02:45:17.983Z,82.50
2018-07-29T02:46:18.232Z,82.21
2018-07-29T02:47:18.351Z,82.41
2018-07-29T02:48:18.547Z,82.50
2018-07-29T02:49:18.716Z,81.83
2018-07-29T02:50:18.907Z,81.73
2018-07-29T02:51:19.081Z,81.73
2018-07-29T02:52:19.265Z,81.73
2018-07-29T02:53:19.463Z,81.73
2018-07-29T02:54:19.629Z,82.60
2018-07-29T02:55:19.830Z,82.31
2018-07-29T02:56:19.996Z,82.21
2018-07-29T02:57:20.178Z,82.89
2018-07-29T02:58:20.368Z,82.50
2018-07-29T02:59:20.668Z,82.50
2018-07-29T03:00:20.741Z,82.89
2018-07-29T03:01:20.941Z,82.89
2018-07-29T03:02:21.102Z,82.50
2018-07-29T03:03:21.300Z,82.70
2018-07-29T03:04:21.494Z,82.75
2018-07-29T03:05:21.671Z,82.94
2018-07-29T03:06:21.854Z,83.04
2018-07-29T03:07:22.046Z,82.65
2018-07-29T03:08:22.236Z,83.04
2018-07-29T03:09:22.432Z,82.94
2018-07-29T03:10:22.604Z,83.04
2018-07-29T03:11:22.791Z,83.23
2018-07-29T03:12:23.002Z,83.23
2018-07-29T03:13:23.156Z,83.14
2018-07-29T03:14:23.335Z,83.42
2018-07-29T03:15:23.514Z,83.33
2018-07-29T03:16:23.727Z,83.23
2018-07-29T03:17:23.917Z,83.81
2018-07-29T03:18:24.099Z,84.00
2018-07-29T03:19:24.295Z,84.29
2018-07-29T03:20:24.473Z,84.19
2018-07-29T03:21:24.652Z,84.10
2018-07-29T03:22:24.838Z,84.10
2018-07-29T03:23:25.019Z,84.00
2018-07-29T03:24:25.227Z,84.10
2018-07-29T03:25:25.385Z,84.19
2018-07-29T03:26:25.571Z,84.19
2018-07-29T03:27:25.753Z,83.52
2018-07-29T03:28:25.948Z,83.52
2018-07-29T03:29:26.140Z,83.52
2018-07-29T03:30:26.317Z,83.33
2018-07-29T03:31:26.498Z,83.14
2018-07-29T03:32:26.686Z,83.52
2018-07-29T03:33:26.879Z,83.23
2018-07-29T03:34:27.062Z,83.91
2018-07-29T03:35:27.243Z,84.73
2018-07-29T03:36:27.428Z,84.63
2018-07-29T03:37:27.610Z,85.02
2018-07-29T03:38:27.796Z,84.73
2018-07-29T03:39:27.983Z,84.44
2018-07-29T03:40:28.168Z,84.10
2018-07-29T03:41:28.352Z,84.10
2018-07-29T03:42:28.547Z,84.19
2018-07-29T03:43:28.744Z,84.29
2018-07-29T03:44:28.902Z,83.62
2018-07-29T03:45:29.092Z,83.81
2018-07-29T03:46:29.270Z,84.19
2018-07-29T03:47:29.459Z,83.52
2018-07-29T03:48:29.645Z,84.10
2018-07-29T03:49:29.829Z,84.10
2018-07-29T03:50:30.017Z,84.06
2018-07-29T03:51:30.210Z,84.63
2018-07-29T03:52:30.385Z,84.63
2018-07-29T03:53:30.570Z,84.34
2018-07-29T03:54:30.759Z,84.83
2018-07-29T03:55:30.936Z,84.73
2018-07-29T03:56:31.118Z,84.73
2018-07-29T03:57:31.315Z,84.83
2018-07-29T03:58:31.493Z,84.63
2018-07-29T03:59:31.676Z,85.31
2018-07-29T04:00:31.863Z,84.54
2018-07-29T04:01:32.054Z,84.92
2018-07-29T04:02:32.239Z,85.02
2018-07-29T04:03:32.421Z,84.92
2018-07-29T04:04:32.612Z,84.83
2018-07-29T04:05:32.802Z,85.02
2018-07-29T04:06:32.975Z,85.02
2018-07-29T04:07:33.163Z,84.63
2018-07-29T04:08:33.348Z,84.54
2018-07-29T04:09:33.531Z,84.00
2018-07-29T04:10:33.731Z,84.19
2018-07-29T04:11:33.930Z,84.25
2018-07-29T04:12:34.100Z,84.34
2018-07-29T04:13:34.286Z,84.16
2018-07-29T04:14:34.469Z,84.83
2018-07-29T04:15:34.650Z,84.63
2018-07-29T04:16:34.828Z,84.63
2018-07-29T04:17:35.013Z,85.21
2018-07-29T04:18:35.206Z,84.63
2018-07-29T04:19:35.399Z,85.21
2018-07-29T04:20:35.578Z,84.92
2018-07-29T04:21:35.766Z,85.60
2018-07-29T04:22:35.950Z,85.31
2018-07-29T04:23:36.138Z,85.31
2018-07-29T04:24:36.314Z,85.50
2018-07-29T04:25:36.493Z,84.98
2018-07-29T04:26:36.682Z,85.36
2018-07-29T04:27:36.877Z,86.22
2018-07-29T04:28:37.063Z,86.42
2018-07-29T04:29:37.244Z,86.71
2018-07-29T04:30:37.427Z,86.52
2018-07-29T04:31:37.621Z,86.42
2018-07-29T04:32:37.827Z,86.52
2018-07-29T04:33:37.992Z,86.42
2018-07-29T04:34:38.172Z,87.29
2018-07-29T04:35:38.362Z,87.92
2018-07-29T04:36:38.553Z,87.82
2018-07-29T04:37:38.728Z,88.20
2018-07-29T04:38:38.922Z,88.01
2018-07-29T04:39:39.107Z,87.48
2018-07-29T04:40:39.296Z,87.48
2018-07-29T04:41:39.477Z,87.38
2018-07-29T04:42:39.663Z,86.42
2018-07-29T04:43:39.844Z,86.32
2018-07-29T04:44:40.035Z,86.90
2018-07-29T04:45:40.210Z,86.56
2018-07-29T04:46:40.398Z,86.13
2018-07-29T04:47:40.587Z,85.98
2018-07-29T04:48:40.769Z,85.69
2018-07-29T04:49:40.977Z,85.31
2018-07-29T04:50:41.149Z,85.11
2018-07-29T04:51:41.360Z,85.60
2018-07-29T04:52:41.535Z,85.50
2018-07-29T04:53:41.726Z,84.44
2018-07-29T04:54:41.924Z,84.83
2018-07-29T04:55:42.098Z,84.29
2018-07-29T04:56:42.293Z,83.23
2018-07-29T04:57:42.476Z,82.70
2018-07-29T04:58:42.690Z,81.39
2018-07-29T04:59:42.849Z,80.08
2018-07-29T05:00:43.038Z,78.96
2018-07-29T05:01:43.223Z,77.13
2018-07-29T05:02:43.405Z,77.42
2018-07-29T05:03:43.593Z,75.82
2018-07-29T05:04:43.780Z,75.97
2018-07-29T05:05:43.970Z,75.92
2018-07-29T05:06:44.157Z,76.20
2018-07-29T05:07:44.346Z,76.10
2018-07-29T05:08:44.524Z,75.72
2018-07-29T05:09:44.722Z,75.18
2018-07-29T05:10:44.902Z,74.12
2018-07-29T05:11:45.091Z,72.80
2018-07-29T05:12:45.279Z,71.78
2018-07-29T05:13:45.703Z,70.56
2018-07-29T05:14:45.651Z,69.33
2018-07-29T05:15:45.839Z,68.30
2018-07-29T05:16:46.029Z,67.37
2018-07-29T05:17:46.214Z,65.66
2018-07-29T05:18:46.407Z,65.92
2018-07-29T05:19:46.587Z,65.27
2018-07-29T05:20:46.791Z,64.24
2018-07-29T05:21:46.977Z,63.10
2018-07-29T05:22:47.167Z,62.52
2018-07-29T05:23:47.348Z,62.91
2018-07-29T05:24:47.541Z,62.33
2018-07-29T05:25:47.725Z,62.88
2018-07-29T05:26:47.913Z,63.10
2018-07-29T05:27:48.097Z,63.10
2018-07-29T05:28:48.301Z,62.23
2018-07-29T05:29:48.474Z,61.58
2018-07-29T05:30:48.663Z,61.39
2018-07-29T05:31:48.862Z,60.94
2018-07-29T05:32:49.058Z,60.84
2018-07-29T05:33:49.238Z,60.81
2018-07-29T05:35:49.619Z,61.58
2018-07-29T05:36:49.817Z,62.69
2018-07-29T05:37:50.005Z,63.85
2018-07-29T05:38:50.250Z,64.14
2018-07-29T05:39:50.390Z,64.72
2018-07-29T05:40:50.577Z,65.47
2018-07-29T05:41:50.771Z,65.95
2018-07-29T05:42:50.961Z,65.85
2018-07-29T05:43:51.157Z,66.98
2018-07-29T05:44:51.344Z,66.50
2018-07-29T05:45:51.535Z,67.27
2018-07-29T05:46:51.733Z,67.37
2018-07-29T05:47:51.963Z,67.18
2018-07-29T05:48:52.149Z,66.72
2018-07-29T05:49:52.338Z,65.95
2018-07-29T05:50:52.535Z,65.56
2018-07-29T05:51:52.730Z,66.27
2018-07-29T05:52:53.166Z,66.50
2018-07-29T05:53:53.104Z,67.21
2018-07-29T05:54:53.295Z,66.34
2018-07-29T05:55:53.529Z,67.02
2018-07-29T05:56:53.669Z,67.18
2018-07-29T05:57:53.860Z,67.85
2018-07-29T05:58:54.056Z,69.56
2018-07-29T05:59:54.248Z,69.08
2018-07-29T06:00:54.438Z,68.24
2018-07-29T06:01:54.631Z,68.33
2018-07-29T06:02:54.818Z,68.18
2018-07-29T06:03:55.019Z,67.30
2018-07-29T06:04:55.205Z,67.21
2018-07-29T06:05:55.406Z,67.27
2018-07-29T06:06:55.819Z,68.24
2018-07-29T06:07:55.763Z,68.33
2018-07-29T06:08:55.970Z,68.01
2018-07-29T06:09:56.167Z,70.84
2018-07-29T06:10:56.366Z,72.45
2018-07-29T06:11:56.553Z,72.10
2018-07-29T06:12:56.735Z,70.98
2018-07-29T06:13:56.935Z,70.20
2018-07-29T06:14:57.123Z,69.95
2018-07-29T06:15:57.310Z,70.04
2018-07-29T06:16:57.503Z,69.46
2018-07-29T06:17:57.698Z,69.27
2018-07-29T06:18:57.877Z,68.53
2018-07-29T06:19:58.069Z,69.27
2018-07-29T06:20:58.242Z,69.50
2018-07-29T06:21:58.431Z,68.33
2018-07-29T06:22:58.619Z,68.18
2018-07-29T06:23:58.811Z,67.02
2018-07-29T06:24:58.998Z,66.63
2018-07-29T06:25:59.220Z,66.53
2018-07-29T06:26:59.388Z,65.98
2018-07-29T06:27:59.582Z,65.59
2018-07-29T06:28:59.759Z,65.05
2018-07-29T06:29:59.950Z,63.88
2018-07-29T06:31:00.144Z,63.56
2018-07-29T06:32:00.327Z,62.78
2018-07-29T06:33:00.514Z,62.95
2018-07-29T06:34:00.703Z,61.65
2018-07-29T06:35:00.901Z,61.25
2018-07-29T06:36:01.080Z,61.29
2018-07-29T06:37:01.283Z,59.86
2018-07-29T06:38:01.462Z,59.95
2018-07-29T06:39:01.652Z,59.31
2018-07-29T06:40:01.836Z,58.89
2018-07-29T06:41:02.040Z,60.35
2018-07-29T06:42:02.218Z,61.25
2018-07-29T06:43:02.407Z,61.25
2018-07-29T06:44:02.598Z,60.61
2018-07-29T06:45:02.797Z,59.47
2018-07-29T06:46:02.989Z,59.31
2018-07-29T06:47:03.188Z,59.31
2018-07-29T06:48:03.374Z,58.72
2018-07-29T06:49:03.574Z,58.89
2018-07-29T06:50:03.749Z,59.50
2018-07-29T06:51:03.941Z,57.78
2018-07-29T06:52:04.137Z,56.54
2018-07-29T06:53:04.329Z,55.57
2018-07-29T06:54:04.523Z,56.03
2018-07-29T06:55:04.726Z,58.98
2018-07-29T06:56:04.912Z,58.23
2018-07-29T06:57:05.095Z,59.67
2018-07-29T06:58:05.292Z,59.01
2018-07-29T06:59:05.483Z,58.62
2018-07-29T07:00:05.680Z,57.59
2018-07-29T07:01:05.881Z,56.09
2018-07-29T07:02:06.068Z,55.69
2018-07-29T07:03:06.267Z,54.75
2018-07-29T07:04:06.458Z,54.91
2018-07-29T07:05:06.654Z,55.01
2018-07-29T07:06:06.845Z,54.75
2018-07-29T07:07:07.034Z,54.94
2018-07-29T07:08:07.229Z,54.16
2018-07-29T07:09:07.421Z,54.82
2018-07-29T07:10:07.611Z,55.25
2018-07-29T07:11:07.810Z,57.29
2018-07-29T07:12:08.014Z,56.51
2018-07-29T07:13:08.192Z,55.89
2018-07-29T07:14:08.387Z,54.75
2018-07-29T07:15:08.580Z,54.26
2018-07-29T07:16:08.775Z,53.89
2018-07-29T07:17:08.972Z,52.85
2018-07-29T07:18:09.207Z,52.39
2018-07-29T07:19:09.357Z,52.44
2018-07-29T07:20:09.550Z,53.58
2018-07-29T07:21:10.445Z,54.82
2018-07-29T07:22:09.924Z,54.72
2018-07-29T07:23:10.110Z,56.64
2018-07-29T07:24:10.306Z,57.20
2018-07-29T07:25:10.493Z,57.75
2018-07-29T07:26:10.711Z,57.29
2018-07-29T07:27:10.921Z,57.59
2018-07-29T07:28:11.332Z,58.53
2018-07-29T07:29:11.267Z,59.38
2018-07-29T07:30:11.463Z,58.53
2018-07-29T07:31:11.663Z,58.33
2018-07-29T07:32:11.861Z,58.04
2018-07-29T07:33:12.040Z,57.78
2018-07-29T07:34:12.238Z,57.87
2018-07-29T07:35:12.431Z,57.39
2018-07-29T07:36:12.629Z,58.33
2018-07-29T07:37:12.815Z,59.38
2018-07-29T07:38:13.000Z,61.13
2018-07-29T07:39:13.203Z,64.24
2018-07-29T07:40:13.383Z,66.14
2018-07-29T07:41:13.580Z,66.95
2018-07-29T07:42:13.781Z,65.72
2018-07-29T07:43:13.956Z,64.65
2018-07-29T07:44:14.170Z,63.46
2018-07-29T07:45:14.344Z,62.59
2018-07-29T07:46:14.535Z,61.74
2018-07-29T07:47:14.723Z,61.58
2018-07-29T07:48:14.912Z,61.32
2018-07-29T07:50:15.275Z,60.90
2018-07-29T07:51:15.479Z,60.25
2018-07-29T07:52:15.671Z,60.08
2018-07-29T07:53:15.871Z,59.21
2018-07-29T07:54:16.102Z,58.62
2018-07-29T07:55:16.249Z,60.15
2018-07-29T07:56:16.443Z,60.12
2018-07-29T07:57:16.622Z,60.41
2018-07-29T07:58:16.827Z,60.31
2018-07-29T07:59:17.003Z,61.16
2018-07-29T08:00:17.201Z,61.07
2018-07-29T08:01:17.387Z,61.22
2018-07-29T08:02:17.769Z,61.81
2018-07-29T08:03:17.764Z,61.45
2018-07-29T08:04:17.949Z,61.19
2018-07-29T08:05:18.149Z,60.77
2018-07-29T08:06:18.332Z,61.00
2018-07-29T08:07:18.520Z,61.45
2018-07-29T08:08:18.709Z,61.38
2018-07-29T08:09:18.912Z,61.00
2018-07-29T08:11:19.285Z,60.31
2018-07-29T08:12:19.524Z,60.35
2018-07-29T08:13:19.671Z,60.44
2018-07-29T08:14:19.862Z,60.15
2018-07-29T08:15:20.054Z,59.59
2018-07-29T08:16:20.243Z,58.75
2018-07-29T08:17:20.419Z,57.59
2018-07-29T08:18:20.610Z,57.22
2018-07-29T08:19:20.797Z,56.93
2018-07-29T08:20:21.004Z,56.54
2018-07-29T08:21:21.184Z,55.96
2018-07-29T08:22:21.428Z,55.79
2018-07-29T08:23:21.563Z,55.11
2018-07-29T08:24:21.753Z,56.45
2018-07-29T08:25:21.942Z,57.00
2018-07-29T08:26:22.131Z,57.29
2018-07-29T08:27:22.325Z,57.17
2018-07-29T08:28:22.676Z,58.04
2018-07-29T08:29:22.735Z,58.04
2018-07-29T08:30:23.548Z,59.38
2018-07-29T08:31:23.000Z,59.38
2018-07-29T08:32:23.181Z,59.08
2018-07-29T08:33:23.370Z,58.59
2018-07-29T08:34:23.587Z,57.85
2018-07-29T08:35:23.743Z,58.14
2018-07-29T08:36:23.930Z,59.28
2018-07-29T08:37:24.108Z,59.08
2018-07-29T08:38:24.296Z,59.05
2018-07-29T08:39:24.486Z,60.31
2018-07-29T08:40:24.692Z,59.92
2018-07-29T08:41:24.866Z,58.69
2018-07-29T08:42:25.063Z,59.28
2018-07-29T08:43:25.252Z,57.85
2018-07-29T08:44:25.485Z,58.31
2018-07-29T08:45:25.712Z,58.14
2018-07-29T08:46:25.811Z,58.04
2018-07-29T08:47:26.004Z,57.17
2018-07-29T08:48:26.193Z,56.51
2018-07-29T08:49:26.385Z,56.35
2018-07-29T08:50:26.576Z,56.71
2018-07-29T08:51:26.760Z,56.71
2018-07-29T08:52:27.198Z,56.41
2018-07-29T08:53:27.149Z,56.74
2018-07-29T08:54:27.389Z,56.05
2018-07-29T08:55:27.645Z,55.21
2018-07-29T08:56:27.746Z,54.82
2018-07-29T08:57:27.929Z,54.82
2018-07-29T08:58:28.118Z,54.16
2018-07-29T08:59:28.311Z,53.87
2018-07-29T09:00:28.498Z,53.38
2018-07-29T09:01:28.698Z,53.28
2018-07-29T09:02:28.883Z,53.38
2018-07-29T09:03:29.072Z,53.70
2018-07-29T09:04:29.261Z,52.83
2018-07-29T09:05:29.450Z,53.70
2018-07-29T09:06:29.878Z,53.48
2018-07-29T09:07:29.835Z,53.48
2018-07-29T09:08:30.027Z,53.45
2018-07-29T09:09:30.215Z,53.85
2018-07-29T09:10:30.475Z,54.66
2018-07-29T09:11:30.612Z,55.90
2018-07-29T09:12:30.805Z,56.41
2018-07-29T09:13:31.001Z,56.41
2018-07-29T09:14:31.184Z,55.86
2018-07-29T09:15:31.386Z,55.08
2018-07-29T09:16:31.564Z,54.91
2018-07-29T09:17:31.756Z,53.75
2018-07-29T09:18:31.952Z,53.75
2018-07-29T09:19:32.143Z,53.36
2018-07-29T09:20:32.327Z,53.26
2018-07-29T09:21:32.551Z,53.36
2018-07-29T09:22:32.707Z,53.45
2018-07-29T09:23:32.900Z,53.26
2018-07-29T09:24:33.093Z,52.77
2018-07-29T09:25:33.290Z,53.72
2018-07-29T09:26:33.472Z,56.52
2018-07-29T09:27:33.656Z,57.89
2018-07-29T09:28:33.843Z,57.14
2018-07-29T09:29:34.041Z,56.77
2018-07-29T09:30:34.313Z,55.74
2018-07-29T09:31:34.415Z,54.86
2018-07-29T09:32:34.607Z,53.59
2018-07-29T09:33:34.799Z,52.84
2018-07-29T09:34:35.233Z,52.19
2018-07-29T09:35:35.186Z,52.28
2018-07-29T09:36:35.370Z,51.41
2018-07-29T09:37:35.572Z,51.80
2018-07-29T09:38:35.752Z,51.02
2018-07-29T09:39:35.945Z,50.85
2018-07-29T09:40:36.135Z,51.21
2018-07-29T09:41:36.322Z,51.43
2018-07-29T09:42:36.517Z,51.61
2018-07-29T09:43:36.720Z,52.14
2018-07-29T09:44:36.897Z,53.79
2018-07-29T09:45:37.152Z,54.08
2018-07-29T09:46:37.265Z,53.20
2018-07-29T09:47:37.450Z,53.20
2018-07-29T09:48:37.646Z,52.26
2018-07-29T09:49:37.839Z,52.65
2018-07-29T09:50:38.029Z,52.43
2018-07-29T09:51:38.217Z,52.55
2018-07-29T09:52:38.406Z,52.09
2018-07-29T09:53:38.593Z,51.02
2018-07-29T09:54:38.845Z,50.65
2018-07-29T09:55:38.984Z,50.38
2018-07-29T09:56:39.187Z,50.19
2018-07-29T09:57:39.360Z,48.93
2018-07-29T09:58:39.546Z,48.49
2018-07-29T09:59:39.737Z,47.71
2018-07-29T10:00:39.921Z,47.31
2018-07-29T10:01:40.114Z,46.70
2018-07-29T10:02:40.301Z,46.73
2018-07-29T10:03:40.490Z,45.85
2018-07-29T10:04:40.690Z,45.56
2018-07-29T10:05:40.876Z,46.41
2018-07-29T10:06:41.065Z,48.29
2018-07-29T10:07:41.259Z,48.56
2018-07-29T10:08:41.461Z,48.68
2018-07-29T10:09:41.642Z,48.12
2018-07-29T10:10:41.842Z,47.58
2018-07-29T10:11:42.036Z,46.83
2018-07-29T10:12:42.237Z,46.34
2018-07-29T10:13:42.417Z,47.17
2018-07-29T10:14:42.605Z,46.80
2018-07-29T10:15:42.889Z,45.65
2018-07-29T10:16:42.987Z,45.36
2018-07-29T10:17:43.174Z,44.78
2018-07-29T10:18:43.362Z,45.00
2018-07-29T10:19:43.553Z,45.39
2018-07-29T10:20:43.741Z,45.56
2018-07-29T10:21:43.931Z,45.85
2018-07-29T10:22:44.134Z,45.19
2018-07-29T10:23:44.318Z,44.43
2018-07-29T10:24:44.504Z,43.36
2018-07-29T10:25:44.694Z,42.48
2018-07-29T10:26:44.886Z,42.38
2018-07-29T10:27:45.077Z,42.63
2018-07-29T10:28:45.268Z,43.71
2018-07-29T10:29:45.459Z,44.12
2018-07-29T10:30:45.649Z,42.94
2018-07-29T10:31:45.846Z,41.75
2018-07-29T10:32:46.035Z,42.16
2018-07-29T10:33:46.249Z,42.07
2018-07-29T10:34:46.423Z,41.70
2018-07-29T10:35:46.617Z,41.09
2018-07-29T10:36:46.806Z,41.77
2018-07-29T10:37:46.999Z,40.99
2018-07-29T10:38:47.188Z,41.31
2018-07-29T10:39:47.381Z,40.82
2018-07-29T10:40:47.578Z,40.63
2018-07-29T10:41:47.770Z,40.53
2018-07-29T10:42:47.957Z,40.25
2018-07-29T10:43:48.149Z,40.06
2018-07-29T10:44:48.337Z,40.64
2018-07-29T10:45:48.531Z,40.64
2018-07-29T10:46:48.748Z,39.78
2018-07-29T10:47:48.919Z,38.90
2018-07-29T10:48:49.349Z,39.20
2018-07-29T10:49:49.306Z,39.57
2018-07-29T10:50:49.484Z,39.67
2018-07-29T10:51:49.677Z,39.86
2018-07-29T10:52:49.866Z,39.47
2018-07-29T10:53:50.049Z,41.17
2018-07-29T10:54:50.241Z,41.27
2018-07-29T10:55:50.431Z,41.56
2018-07-29T10:56:50.629Z,40.50
2018-07-29T10:57:50.823Z,40.70
2018-07-29T10:58:51.024Z,40.78
2018-07-29T10:59:51.332Z,41.28
2018-07-29T11:00:51.393Z,40.63
2018-07-29T11:01:51.594Z,40.23
2018-07-29T11:02:51.776Z,39.96
2018-07-29T11:03:51.970Z,38.98
2018-07-29T11:04:52.162Z,39.18
2018-07-29T11:05:52.359Z,39.28
2018-07-29T11:06:52.547Z,39.29
2018-07-29T11:07:52.738Z,38.98
2018-07-29T11:08:52.935Z,38.61
2018-07-29T11:09:53.167Z,37.95
2018-07-29T11:10:53.328Z,38.42
2018-07-29T11:11:53.535Z,38.32
2018-07-29T11:12:53.721Z,37.93
2018-07-29T11:13:53.894Z,37.55
2018-07-29T11:14:54.099Z,37.55
2018-07-29T11:15:54.316Z,37.65
2018-07-29T11:16:54.511Z,37.93
2018-07-29T11:17:54.690Z,37.63
2018-07-29T11:18:54.879Z,37.83
2018-07-29T11:19:55.075Z,37.93
2018-07-29T11:20:55.297Z,38.12
2018-07-29T11:21:55.462Z,38.61
2018-07-29T11:22:55.649Z,38.30
2018-07-29T11:23:55.953Z,38.61
2018-07-29T11:24:56.027Z,37.35
2018-07-29T11:25:56.208Z,37.67
2018-07-29T11:26:56.406Z,36.79
2018-07-29T11:27:56.586Z,37.49
2018-07-29T11:28:56.799Z,35.83
2018-07-29T11:29:56.971Z,36.14
2018-07-29T11:31:57.320Z,36.71
2018-07-29T11:32:57.510Z,38.51
2018-07-29T11:33:57.698Z,38.81
2018-07-29T11:34:57.875Z,37.65
2018-07-29T11:35:58.088Z,37.63
2018-07-29T11:36:58.253Z,37.34
2018-07-29T11:37:58.445Z,36.75
2018-07-29T11:38:58.634Z,35.97
2018-07-29T11:39:58.811Z,35.69
2018-07-29T11:40:59.007Z,35.79
2018-07-29T11:41:59.197Z,35.69
2018-07-29T11:42:59.390Z,36.87
2018-07-29T11:43:59.586Z,37.32
2018-07-29T11:44:59.774Z,37.73
2018-07-29T11:45:59.968Z,38.04
2018-07-29T11:47:00.165Z,37.85
2018-07-29T11:48:00.354Z,37.95
2018-07-29T11:49:00.543Z,37.65
2018-07-29T11:50:00.733Z,37.95
2018-07-29T11:51:00.922Z,37.26
2018-07-29T11:52:01.111Z,36.59
2018-07-29T11:53:01.304Z,36.59
2018-07-29T11:54:01.494Z,36.08
2018-07-29T11:55:01.691Z,36.77
2018-07-29T11:56:01.874Z,36.75
2018-07-29T11:57:02.081Z,36.85
2018-07-29T11:58:02.254Z,37.63
2018-07-29T11:59:02.449Z,37.12
2018-07-29T12:00:02.626Z,37.43
2018-07-29T12:01:02.830Z,36.85
2018-07-29T12:02:03.010Z,36.36
2018-07-29T12:03:03.270Z,36.55
2018-07-29T12:04:03.387Z,36.65
2018-07-29T12:05:03.536Z,36.46
2018-07-29T12:06:03.730Z,36.75
2018-07-29T12:07:04.715Z,37.60
2018-07-29T12:08:04.061Z,38.57
2018-07-29T12:09:04.249Z,38.49
2018-07-29T12:10:04.498Z,37.62
2018-07-29T12:11:04.625Z,37.52
2018-07-29T12:12:04.822Z,37.91
2018-07-29T12:13:05.726Z,37.54
2018-07-29T12:14:05.180Z,37.32
2018-07-29T12:15:05.355Z,37.41
2018-07-29T12:16:05.571Z,37.63
2018-07-29T12:17:05.783Z,37.45
2018-07-29T12:18:05.919Z,37.37
2018-07-29T12:19:06.117Z,36.98
2018-07-29T12:20:06.308Z,36.88
2018-07-29T12:21:06.499Z,37.18
2018-07-29T12:22:06.692Z,37.37
2018-07-29T12:23:06.882Z,37.75
2018-07-29T12:24:07.083Z,38.02
2018-07-29T12:25:07.278Z,38.81
2018-07-29T12:26:08.033Z,39.00
2018-07-29T12:27:07.632Z,39.00
2018-07-29T12:28:07.813Z,38.63
2018-07-29T12:29:08.009Z,37.55
2018-07-29T12:30:08.191Z,37.35
2018-07-29T12:31:08.376Z,37.47
2018-07-29T12:32:08.568Z,38.04
2018-07-29T12:33:08.757Z,38.14
2018-07-29T12:34:08.948Z,39.00
2018-07-29T12:35:09.137Z,38.89
2018-07-29T12:36:09.327Z,39.10
2018-07-29T12:37:09.533Z,39.00
2018-07-29T12:38:09.715Z,37.95
2018-07-29T12:39:09.905Z,37.83
2018-07-29T12:40:10.113Z,37.75
2018-07-29T12:41:10.284Z,37.75
2018-07-29T12:42:10.479Z,37.75
2018-07-29T12:43:10.703Z,38.34
2018-07-29T12:44:10.858Z,38.63
2018-07-29T12:45:11.058Z,37.65
2018-07-29T12:46:11.242Z,36.47
2018-07-29T12:47:11.437Z,36.49
2018-07-29T12:48:11.892Z,35.91
2018-07-29T12:49:11.851Z,35.03
2018-07-29T12:50:12.072Z,35.21
2018-07-29T12:51:12.218Z,36.05
2018-07-29T12:52:12.427Z,36.65
2018-07-29T12:53:12.585Z,36.57
2018-07-29T12:54:12.786Z,36.54
2018-07-29T12:55:12.977Z,37.24
2018-07-29T12:56:13.185Z,36.85
2018-07-29T12:57:13.347Z,36.46
2018-07-29T12:58:13.539Z,36.75
2018-07-29T12:59:13.711Z,36.67
2018-07-29T13:00:13.911Z,36.67